sensor_id;sensor_type;location;lat;lon;timestamp;P1;durP1;ratioP1;P2;durP2;ratioP2
56911;SDS011;42800;53.928;27.662;2023-07-13T00:01:50;14.57;;;4.20;;
56911;SDS011;42800;53.928;27.662;2023-07-13T00:04:17;10.18;;;3.90;;
56911;SDS011;42800;53.928;27.662;2023-07-13T00:06:44;5.97;;;3.40;;
56911;SDS011;42800;53.928;27.662;2023-07-13T00:09:11;11.55;;;3.50;;
56911;SDS011;42800;53.928;27.662;2023-07-13T00:11:38;14.88;;;4.25;;
56911;SDS011;42800;53.928;27.662;2023-07-13T00:14:04;8.68;;;3.40;;
56911;SDS011;42800;53.928;27.662;2023-07-13T00:16:31;7.72;;;3.58;;
56911;SDS011;42800;53.928;27.662;2023-07-13T00:18:59;7.00;;;3.25;;
56911;SDS011;42800;53.928;27.662;2023-07-13T00:21:26;7.25;;;3.00;;
56911;SDS011;42800;53.928;27.662;2023-07-13T00:23:52;6.82;;;3.40;;
56911;SDS011;42800;53.928;27.662;2023-07-13T00:26:18;7.18;;;3.00;;
56911;SDS011;42800;53.928;27.662;2023-07-13T00:28:44;14.07;;;3.08;;
56911;SDS011;42800;53.928;27.662;2023-07-13T00:31:10;10.98;;;2.70;;
56911;SDS011;42800;53.928;27.662;2023-07-13T00:33:39;8.88;;;3.08;;
56911;SDS011;42800;53.928;27.662;2023-07-13T00:36:05;6.53;;;2.53;;
56911;SDS011;42800;53.928;27.662;2023-07-13T00:38:31;4.60;;;2.40;;
56911;SDS011;42800;53.928;27.662;2023-07-13T00:40:57;3.65;;;2.40;;
56911;SDS011;42800;53.928;27.662;2023-07-13T00:43:25;6.57;;;2.45;;
56911;SDS011;42800;53.928;27.662;2023-07-13T00:48:40;4.97;;;2.63;;
56911;SDS011;42800;53.928;27.662;2023-07-13T00:51:08;5.22;;;2.42;;
56911;SDS011;42800;53.928;27.662;2023-07-13T00:53:36;5.95;;;2.35;;
56911;SDS011;42800;53.928;27.662;2023-07-13T00:56:02;5.22;;;2.28;;
56911;SDS011;42800;53.928;27.662;2023-07-13T00:58:29;5.95;;;2.33;;
56911;SDS011;42800;53.928;27.662;2023-07-13T01:00:56;7.15;;;2.47;;
56911;SDS011;42800;53.928;27.662;2023-07-13T01:03:22;3.08;;;2.38;;
56911;SDS011;42800;53.928;27.662;2023-07-13T01:05:48;1.92;;;1.63;;
56911;SDS011;42800;53.928;27.662;2023-07-13T01:08:15;4.05;;;1.50;;
56911;SDS011;42800;53.928;27.662;2023-07-13T01:10:50;5.03;;;1.90;;
56911;SDS011;42800;53.928;27.662;2023-07-13T01:13:16;4.10;;;1.80;;
56911;SDS011;42800;53.928;27.662;2023-07-13T01:15:43;5.78;;;1.45;;
56911;SDS011;42800;53.928;27.662;2023-07-13T01:18:12;4.35;;;2.30;;
56911;SDS011;42800;53.928;27.662;2023-07-13T01:20:40;3.47;;;1.52;;
56911;SDS011;42800;53.928;27.662;2023-07-13T01:23:09;3.25;;;2.15;;
56911;SDS011;42800;53.928;27.662;2023-07-13T01:25:38;3.13;;;1.80;;
56911;SDS011;42800;53.928;27.662;2023-07-13T01:28:04;3.47;;;1.60;;
56911;SDS011;42800;53.928;27.662;2023-07-13T01:30:31;3.10;;;1.67;;
56911;SDS011;42800;53.928;27.662;2023-07-13T01:32:57;2.58;;;1.80;;
56911;SDS011;42800;53.928;27.662;2023-07-13T01:35:23;4.55;;;2.10;;
56911;SDS011;42800;53.928;27.662;2023-07-13T01:37:50;2.97;;;1.90;;
56911;SDS011;42800;53.928;27.662;2023-07-13T01:40:17;2.00;;;1.45;;
56911;SDS011;42800;53.928;27.662;2023-07-13T01:42:43;2.38;;;1.63;;
56911;SDS011;42800;53.928;27.662;2023-07-13T01:45:09;3.70;;;1.80;;
56911;SDS011;42800;53.928;27.662;2023-07-13T01:47:35;4.90;;;2.08;;
56911;SDS011;42800;53.928;27.662;2023-07-13T01:50:01;2.25;;;2.05;;
56911;SDS011;42800;53.928;27.662;2023-07-13T01:52:27;2.67;;;1.95;;
56911;SDS011;42800;53.928;27.662;2023-07-13T01:54:53;6.15;;;2.00;;
56911;SDS011;42800;53.928;27.662;2023-07-13T01:57:20;5.47;;;1.90;;
56911;SDS011;42800;53.928;27.662;2023-07-13T01:59:45;3.75;;;2.10;;
56911;SDS011;42800;53.928;27.662;2023-07-13T02:02:12;3.28;;;2.03;;
56911;SDS011;42800;53.928;27.662;2023-07-13T02:04:37;4.75;;;1.95;;
56911;SDS011;42800;53.928;27.662;2023-07-13T02:07:04;4.32;;;2.08;;
56911;SDS011;42800;53.928;27.662;2023-07-13T02:09:30;2.28;;;1.98;;
56911;SDS011;42800;53.928;27.662;2023-07-13T02:11:56;7.97;;;3.25;;
56911;SDS011;42800;53.928;27.662;2023-07-13T02:14:23;4.07;;;1.95;;
56911;SDS011;42800;53.928;27.662;2023-07-13T02:16:48;3.92;;;1.80;;
56911;SDS011;42800;53.928;27.662;2023-07-13T02:19:14;3.53;;;2.20;;
56911;SDS011;42800;53.928;27.662;2023-07-13T02:21:40;3.38;;;2.00;;
56911;SDS011;42800;53.928;27.662;2023-07-13T02:24:06;5.15;;;2.35;;
56911;SDS011;42800;53.928;27.662;2023-07-13T02:26:32;4.25;;;2.05;;
56911;SDS011;42800;53.928;27.662;2023-07-13T02:28:58;7.15;;;2.00;;
56911;SDS011;42800;53.928;27.662;2023-07-13T02:31:25;3.90;;;1.90;;
56911;SDS011;42800;53.928;27.662;2023-07-13T02:33:51;2.30;;;1.98;;
56911;SDS011;42800;53.928;27.662;2023-07-13T02:36:17;3.58;;;1.70;;
56911;SDS011;42800;53.928;27.662;2023-07-13T02:38:43;3.00;;;1.90;;
56911;SDS011;42800;53.928;27.662;2023-07-13T02:41:09;4.57;;;2.20;;
56911;SDS011;42800;53.928;27.662;2023-07-13T02:43:38;3.22;;;2.15;;
56911;SDS011;42800;53.928;27.662;2023-07-13T02:46:04;2.13;;;1.80;;
56911;SDS011;42800;53.928;27.662;2023-07-13T02:48:32;11.85;;;1.90;;
56911;SDS011;42800;53.928;27.662;2023-07-13T02:50:58;4.72;;;2.30;;
56911;SDS011;42800;53.928;27.662;2023-07-13T02:53:24;2.65;;;2.00;;
56911;SDS011;42800;53.928;27.662;2023-07-13T02:55:51;2.92;;;1.80;;
56911;SDS011;42800;53.928;27.662;2023-07-13T02:58:16;4.38;;;2.10;;
56911;SDS011;42800;53.928;27.662;2023-07-13T03:00:43;4.22;;;2.15;;
56911;SDS011;42800;53.928;27.662;2023-07-13T03:03:09;5.28;;;2.72;;
56911;SDS011;42800;53.928;27.662;2023-07-13T03:05:36;3.30;;;2.20;;
56911;SDS011;42800;53.928;27.662;2023-07-13T03:08:02;7.32;;;2.33;;
56911;SDS011;42800;53.928;27.662;2023-07-13T03:10:28;5.03;;;2.45;;
56911;SDS011;42800;53.928;27.662;2023-07-13T03:12:54;3.35;;;2.17;;
56911;SDS011;42800;53.928;27.662;2023-07-13T03:15:20;5.35;;;2.08;;
56911;SDS011;42800;53.928;27.662;2023-07-13T03:17:46;2.75;;;2.20;;
56911;SDS011;42800;53.928;27.662;2023-07-13T03:20:13;3.20;;;2.05;;
56911;SDS011;42800;53.928;27.662;2023-07-13T03:22:39;4.97;;;2.50;;
56911;SDS011;42800;53.928;27.662;2023-07-13T03:25:05;3.70;;;2.42;;
56911;SDS011;42800;53.928;27.662;2023-07-13T03:27:32;4.07;;;2.35;;
56911;SDS011;42800;53.928;27.662;2023-07-13T03:29:58;8.30;;;3.65;;
56911;SDS011;42800;53.928;27.662;2023-07-13T03:32:23;3.28;;;2.42;;
56911;SDS011;42800;53.928;27.662;2023-07-13T03:34:49;8.50;;;2.78;;
56911;SDS011;42800;53.928;27.662;2023-07-13T03:37:15;3.83;;;2.00;;
56911;SDS011;42800;53.928;27.662;2023-07-13T03:39:42;4.65;;;2.78;;
56911;SDS011;42800;53.928;27.662;2023-07-13T03:42:08;6.75;;;2.60;;
56911;SDS011;42800;53.928;27.662;2023-07-13T03:44:34;7.57;;;3.15;;
56911;SDS011;42800;53.928;27.662;2023-07-13T03:47:01;6.50;;;2.85;;
56911;SDS011;42800;53.928;27.662;2023-07-13T03:49:27;3.33;;;2.55;;
56911;SDS011;42800;53.928;27.662;2023-07-13T03:51:53;12.00;;;3.58;;
56911;SDS011;42800;53.928;27.662;2023-07-13T03:54:19;6.72;;;2.50;;
56911;SDS011;42800;53.928;27.662;2023-07-13T03:56:45;8.60;;;3.30;;
56911;SDS011;42800;53.928;27.662;2023-07-13T03:59:11;8.02;;;3.20;;
56911;SDS011;42800;53.928;27.662;2023-07-13T04:01:37;8.10;;;3.13;;
56911;SDS011;42800;53.928;27.662;2023-07-13T04:04:03;3.80;;;2.65;;
56911;SDS011;42800;53.928;27.662;2023-07-13T04:06:29;4.70;;;3.00;;
56911;SDS011;42800;53.928;27.662;2023-07-13T04:08:56;5.50;;;2.63;;
56911;SDS011;42800;53.928;27.662;2023-07-13T04:11:24;5.65;;;2.53;;
56911;SDS011;42800;53.928;27.662;2023-07-13T04:13:53;9.18;;;3.00;;
56911;SDS011;42800;53.928;27.662;2023-07-13T04:16:19;6.15;;;2.65;;
56911;SDS011;42800;53.928;27.662;2023-07-13T04:18:45;7.20;;;3.00;;
56911;SDS011;42800;53.928;27.662;2023-07-13T04:21:12;4.05;;;2.75;;
56911;SDS011;42800;53.928;27.662;2023-07-13T04:23:39;8.77;;;3.00;;
56911;SDS011;42800;53.928;27.662;2023-07-13T04:26:06;5.93;;;2.90;;
56911;SDS011;42800;53.928;27.662;2023-07-13T04:28:32;7.38;;;3.33;;
56911;SDS011;42800;53.928;27.662;2023-07-13T04:30:59;12.27;;;3.83;;
56911;SDS011;42800;53.928;27.662;2023-07-13T04:33:26;9.13;;;4.78;;
56911;SDS011;42800;53.928;27.662;2023-07-13T04:35:53;10.57;;;4.50;;
56911;SDS011;42800;53.928;27.662;2023-07-13T04:38:21;11.93;;;6.00;;
56911;SDS011;42800;53.928;27.662;2023-07-13T04:40:47;13.18;;;5.82;;
56911;SDS011;42800;53.928;27.662;2023-07-13T04:43:13;11.13;;;5.53;;
56911;SDS011;42800;53.928;27.662;2023-07-13T04:45:40;11.90;;;5.60;;
56911;SDS011;42800;53.928;27.662;2023-07-13T04:48:07;13.07;;;5.50;;
56911;SDS011;42800;53.928;27.662;2023-07-13T04:50:35;9.65;;;5.13;;
56911;SDS011;42800;53.928;27.662;2023-07-13T04:53:02;7.80;;;4.82;;
56911;SDS011;42800;53.928;27.662;2023-07-13T04:55:29;12.60;;;6.03;;
56911;SDS011;42800;53.928;27.662;2023-07-13T04:57:55;36.25;;;8.07;;
56911;SDS011;42800;53.928;27.662;2023-07-13T05:00:22;21.95;;;7.03;;
56911;SDS011;42800;53.928;27.662;2023-07-13T05:02:48;18.65;;;7.80;;
56911;SDS011;42800;53.928;27.662;2023-07-13T05:05:14;16.95;;;8.18;;
56911;SDS011;42800;53.928;27.662;2023-07-13T05:07:40;17.20;;;7.18;;
56911;SDS011;42800;53.928;27.662;2023-07-13T05:10:07;19.00;;;8.35;;
56911;SDS011;42800;53.928;27.662;2023-07-13T05:12:34;16.95;;;8.10;;
56911;SDS011;42800;53.928;27.662;2023-07-13T05:14:59;17.98;;;8.57;;
56911;SDS011;42800;53.928;27.662;2023-07-13T05:17:26;20.60;;;9.68;;
56911;SDS011;42800;53.928;27.662;2023-07-13T05:19:52;25.63;;;10.95;;
56911;SDS011;42800;53.928;27.662;2023-07-13T05:22:18;18.40;;;9.63;;
56911;SDS011;42800;53.928;27.662;2023-07-13T05:24:44;20.88;;;9.20;;
56911;SDS011;42800;53.928;27.662;2023-07-13T05:27:10;20.98;;;9.02;;
56911;SDS011;42800;53.928;27.662;2023-07-13T05:29:36;16.42;;;9.60;;
56911;SDS011;42800;53.928;27.662;2023-07-13T05:32:02;18.20;;;9.32;;
56911;SDS011;42800;53.928;27.662;2023-07-13T05:34:29;27.33;;;10.10;;
56911;SDS011;42800;53.928;27.662;2023-07-13T05:36:55;16.90;;;8.50;;
56911;SDS011;42800;53.928;27.662;2023-07-13T05:39:21;15.70;;;6.82;;
56911;SDS011;42800;53.928;27.662;2023-07-13T05:41:47;12.85;;;6.00;;
56911;SDS011;42800;53.928;27.662;2023-07-13T05:44:14;13.55;;;5.88;;
56911;SDS011;42800;53.928;27.662;2023-07-13T05:46:40;19.52;;;5.90;;
56911;SDS011;42800;53.928;27.662;2023-07-13T05:49:06;13.50;;;5.88;;
56911;SDS011;42800;53.928;27.662;2023-07-13T05:51:31;16.08;;;6.25;;
56911;SDS011;42800;53.928;27.662;2023-07-13T05:53:57;11.27;;;5.63;;
56911;SDS011;42800;53.928;27.662;2023-07-13T05:56:24;14.45;;;6.30;;
56911;SDS011;42800;53.928;27.662;2023-07-13T05:58:51;7.90;;;4.60;;
56911;SDS011;42800;53.928;27.662;2023-07-13T06:01:17;8.32;;;4.80;;
56911;SDS011;42800;53.928;27.662;2023-07-13T06:03:45;9.40;;;5.47;;
56911;SDS011;42800;53.928;27.662;2023-07-13T06:06:11;9.02;;;5.75;;
56911;SDS011;42800;53.928;27.662;2023-07-13T06:08:38;12.68;;;4.95;;
56911;SDS011;42800;53.928;27.662;2023-07-13T06:11:04;8.20;;;4.68;;
56911;SDS011;42800;53.928;27.662;2023-07-13T06:13:32;11.48;;;4.35;;
56911;SDS011;42800;53.928;27.662;2023-07-13T06:15:58;5.72;;;4.20;;
56911;SDS011;42800;53.928;27.662;2023-07-13T06:18:24;10.55;;;5.22;;
56911;SDS011;42800;53.928;27.662;2023-07-13T06:20:50;8.70;;;5.25;;
56911;SDS011;42800;53.928;27.662;2023-07-13T06:23:16;8.93;;;5.30;;
56911;SDS011;42800;53.928;27.662;2023-07-13T06:25:42;11.80;;;5.60;;
56911;SDS011;42800;53.928;27.662;2023-07-13T06:28:09;5.95;;;5.25;;
56911;SDS011;42800;53.928;27.662;2023-07-13T06:30:35;10.50;;;5.32;;
56911;SDS011;42800;53.928;27.662;2023-07-13T06:33:03;7.53;;;5.65;;
56911;SDS011;42800;53.928;27.662;2023-07-13T06:35:29;8.95;;;5.20;;
56911;SDS011;42800;53.928;27.662;2023-07-13T06:37:55;7.18;;;4.95;;
56911;SDS011;42800;53.928;27.662;2023-07-13T06:40:21;10.60;;;5.35;;
56911;SDS011;42800;53.928;27.662;2023-07-13T06:42:47;8.45;;;5.78;;
56911;SDS011;42800;53.928;27.662;2023-07-13T06:45:13;8.23;;;5.50;;
56911;SDS011;42800;53.928;27.662;2023-07-13T06:47:39;8.95;;;5.28;;
56911;SDS011;42800;53.928;27.662;2023-07-13T06:50:06;8.13;;;5.13;;
56911;SDS011;42800;53.928;27.662;2023-07-13T06:52:33;12.10;;;5.28;;
56911;SDS011;42800;53.928;27.662;2023-07-13T06:54:59;9.68;;;4.85;;
56911;SDS011;42800;53.928;27.662;2023-07-13T06:57:25;6.80;;;4.70;;
56911;SDS011;42800;53.928;27.662;2023-07-13T06:59:51;13.38;;;5.82;;
56911;SDS011;42800;53.928;27.662;2023-07-13T07:02:17;9.13;;;4.88;;
56911;SDS011;42800;53.928;27.662;2023-07-13T07:04:44;8.70;;;5.03;;
56911;SDS011;42800;53.928;27.662;2023-07-13T07:07:10;8.38;;;5.43;;
56911;SDS011;42800;53.928;27.662;2023-07-13T07:09:36;9.43;;;4.50;;
56911;SDS011;42800;53.928;27.662;2023-07-13T07:12:02;11.73;;;4.55;;
56911;SDS011;42800;53.928;27.662;2023-07-13T07:14:28;7.72;;;5.00;;
56911;SDS011;42800;53.928;27.662;2023-07-13T07:16:54;9.13;;;4.88;;
56911;SDS011;42800;53.928;27.662;2023-07-13T07:19:20;8.00;;;5.60;;
56911;SDS011;42800;53.928;27.662;2023-07-13T07:21:47;7.57;;;5.68;;
56911;SDS011;42800;53.928;27.662;2023-07-13T07:24:13;7.78;;;4.80;;
56911;SDS011;42800;53.928;27.662;2023-07-13T07:26:38;9.45;;;4.72;;
56911;SDS011;42800;53.928;27.662;2023-07-13T07:29:04;9.82;;;5.00;;
56911;SDS011;42800;53.928;27.662;2023-07-13T07:31:30;8.88;;;4.60;;
56911;SDS011;42800;53.928;27.662;2023-07-13T07:33:56;10.77;;;4.65;;
56911;SDS011;42800;53.928;27.662;2023-07-13T07:36:22;11.13;;;5.00;;
56911;SDS011;42800;53.928;27.662;2023-07-13T07:38:49;4.95;;;3.88;;
56911;SDS011;42800;53.928;27.662;2023-07-13T07:41:14;6.25;;;4.35;;
56911;SDS011;42800;53.928;27.662;2023-07-13T07:43:40;8.98;;;4.72;;
56911;SDS011;42800;53.928;27.662;2023-07-13T07:46:06;8.38;;;3.92;;
56911;SDS011;42800;53.928;27.662;2023-07-13T07:48:32;7.13;;;4.38;;
56911;SDS011;42800;53.928;27.662;2023-07-13T07:50:58;4.57;;;4.13;;
56911;SDS011;42800;53.928;27.662;2023-07-13T07:53:24;9.02;;;4.80;;
56911;SDS011;42800;53.928;27.662;2023-07-13T07:55:51;6.07;;;4.25;;
56911;SDS011;42800;53.928;27.662;2023-07-13T07:58:17;7.13;;;4.75;;
56911;SDS011;42800;53.928;27.662;2023-07-13T08:00:43;5.35;;;4.70;;
56911;SDS011;42800;53.928;27.662;2023-07-13T08:03:08;6.55;;;4.70;;
56911;SDS011;42800;53.928;27.662;2023-07-13T08:05:35;6.72;;;4.60;;
56911;SDS011;42800;53.928;27.662;2023-07-13T08:08:01;7.85;;;4.63;;
56911;SDS011;42800;53.928;27.662;2023-07-13T08:10:27;5.90;;;5.15;;
56911;SDS011;42800;53.928;27.662;2023-07-13T08:12:54;7.20;;;4.85;;
56911;SDS011;42800;53.928;27.662;2023-07-13T08:15:20;8.90;;;5.00;;
56911;SDS011;42800;53.928;27.662;2023-07-13T08:17:46;5.13;;;4.63;;
56911;SDS011;42800;53.928;27.662;2023-07-13T08:20:13;7.65;;;4.80;;
56911;SDS011;42800;53.928;27.662;2023-07-13T08:22:39;8.43;;;4.70;;
56911;SDS011;42800;53.928;27.662;2023-07-13T08:25:05;6.78;;;4.75;;
56911;SDS011;42800;53.928;27.662;2023-07-13T08:27:32;5.38;;;4.68;;
56911;SDS011;42800;53.928;27.662;2023-07-13T08:29:59;4.68;;;3.72;;
56911;SDS011;42800;53.928;27.662;2023-07-13T08:32:25;6.85;;;4.30;;
56911;SDS011;42800;53.928;27.662;2023-07-13T08:34:51;6.03;;;4.35;;
56911;SDS011;42800;53.928;27.662;2023-07-13T08:37:18;6.05;;;4.43;;
56911;SDS011;42800;53.928;27.662;2023-07-13T08:39:45;8.82;;;5.03;;
56911;SDS011;42800;53.928;27.662;2023-07-13T08:42:12;5.35;;;4.82;;
56911;SDS011;42800;53.928;27.662;2023-07-13T08:44:47;5.80;;;4.43;;
56911;SDS011;42800;53.928;27.662;2023-07-13T08:47:21;7.00;;;4.72;;
56911;SDS011;42800;53.928;27.662;2023-07-13T08:49:49;8.57;;;4.78;;
56911;SDS011;42800;53.928;27.662;2023-07-13T08:52:16;6.88;;;4.90;;
56911;SDS011;42800;53.928;27.662;2023-07-13T08:54:53;6.00;;;4.80;;
56911;SDS011;42800;53.928;27.662;2023-07-13T08:57:23;5.03;;;4.45;;
56911;SDS011;42800;53.928;27.662;2023-07-13T08:59:55;5.32;;;4.90;;
56911;SDS011;42800;53.928;27.662;2023-07-13T09:02:25;5.55;;;4.95;;
56911;SDS011;42800;53.928;27.662;2023-07-13T09:04:54;6.45;;;4.53;;
56911;SDS011;42800;53.928;27.662;2023-07-13T09:07:29;10.05;;;5.20;;
56911;SDS011;42800;53.928;27.662;2023-07-13T09:10:11;4.85;;;4.30;;
56911;SDS011;42800;53.928;27.662;2023-07-13T09:12:45;6.82;;;5.30;;
56911;SDS011;42800;53.928;27.662;2023-07-13T09:15:21;5.85;;;4.70;;
56911;SDS011;42800;53.928;27.662;2023-07-13T09:20:21;6.22;;;4.70;;
56911;SDS011;42800;53.928;27.662;2023-07-13T09:22:52;5.07;;;4.55;;
56911;SDS011;42800;53.928;27.662;2023-07-13T09:25:21;4.88;;;4.10;;
56911;SDS011;42800;53.928;27.662;2023-07-13T09:27:54;7.60;;;4.38;;
56911;SDS011;42800;53.928;27.662;2023-07-13T09:30:24;5.05;;;4.55;;
56911;SDS011;42800;53.928;27.662;2023-07-13T09:32:56;5.65;;;4.60;;
56911;SDS011;42800;53.928;27.662;2023-07-13T09:35:24;5.95;;;4.43;;
56911;SDS011;42800;53.928;27.662;2023-07-13T09:37:56;4.20;;;3.85;;
56911;SDS011;42800;53.928;27.662;2023-07-13T09:40:24;8.60;;;4.30;;
56911;SDS011;42800;53.928;27.662;2023-07-13T09:42:53;8.82;;;4.45;;
56911;SDS011;42800;53.928;27.662;2023-07-13T09:45:26;6.15;;;3.88;;
56911;SDS011;42800;53.928;27.662;2023-07-13T09:47:59;4.57;;;4.17;;
56911;SDS011;42800;53.928;27.662;2023-07-13T09:50:29;4.40;;;4.00;;
56911;SDS011;42800;53.928;27.662;2023-07-13T09:52:55;7.18;;;3.92;;
56911;SDS011;42800;53.928;27.662;2023-07-13T09:55:24;4.25;;;3.75;;
56911;SDS011;42800;53.928;27.662;2023-07-13T09:57:51;4.78;;;4.10;;
56911;SDS011;42800;53.928;27.662;2023-07-13T10:00:22;5.90;;;3.63;;
56911;SDS011;42800;53.928;27.662;2023-07-13T10:03:01;4.53;;;3.38;;
56911;SDS011;42800;53.928;27.662;2023-07-13T10:05:36;4.85;;;3.90;;
56911;SDS011;42800;53.928;27.662;2023-07-13T10:08:03;5.95;;;4.20;;
56911;SDS011;42800;53.928;27.662;2023-07-13T10:10:32;4.72;;;3.70;;
56911;SDS011;42800;53.928;27.662;2023-07-13T10:13:01;8.70;;;4.10;;
56911;SDS011;42800;53.928;27.662;2023-07-13T10:15:28;11.40;;;3.60;;
56911;SDS011;42800;53.928;27.662;2023-07-13T10:17:54;6.78;;;3.90;;
56911;SDS011;42800;53.928;27.662;2023-07-13T10:20:23;4.45;;;3.70;;
56911;SDS011;42800;53.928;27.662;2023-07-13T10:22:51;5.10;;;3.55;;
56911;SDS011;42800;53.928;27.662;2023-07-13T10:25:21;3.45;;;3.13;;
56911;SDS011;42800;53.928;27.662;2023-07-13T10:27:50;6.25;;;2.90;;
56911;SDS011;42800;53.928;27.662;2023-07-13T10:30:19;2.72;;;2.53;;
56911;SDS011;42800;53.928;27.662;2023-07-13T10:32:48;3.20;;;3.00;;
56911;SDS011;42800;53.928;27.662;2023-07-13T10:35:16;3.10;;;2.90;;
56911;SDS011;42800;53.928;27.662;2023-07-13T10:37:47;3.03;;;2.80;;
56911;SDS011;42800;53.928;27.662;2023-07-13T10:40:21;3.50;;;3.20;;
56911;SDS011;42800;53.928;27.662;2023-07-13T10:42:53;7.13;;;3.55;;
56911;SDS011;42800;53.928;27.662;2023-07-13T10:45:22;3.28;;;2.97;;
56911;SDS011;42800;53.928;27.662;2023-07-13T10:47:51;6.70;;;3.10;;
56911;SDS011;42800;53.928;27.662;2023-07-13T10:50:22;4.22;;;2.88;;
56911;SDS011;42800;53.928;27.662;2023-07-13T10:52:52;6.40;;;2.78;;
56911;SDS011;42800;53.928;27.662;2023-07-13T10:55:36;3.50;;;3.10;;
56911;SDS011;42800;53.928;27.662;2023-07-13T10:58:12;3.08;;;2.88;;
56911;SDS011;42800;53.928;27.662;2023-07-13T11:00:46;6.20;;;3.38;;
56911;SDS011;42800;53.928;27.662;2023-07-13T11:03:16;4.15;;;3.20;;
56911;SDS011;42800;53.928;27.662;2023-07-13T11:05:44;4.40;;;3.40;;
56911;SDS011;42800;53.928;27.662;2023-07-13T11:08:18;4.78;;;3.40;;
56911;SDS011;42800;53.928;27.662;2023-07-13T11:10:47;7.25;;;3.03;;
56911;SDS011;42800;53.928;27.662;2023-07-13T11:16:35;3.40;;;2.75;;
56911;SDS011;42800;53.928;27.662;2023-07-13T11:19:18;5.45;;;3.30;;
56911;SDS011;42800;53.928;27.662;2023-07-13T11:22:15;3.40;;;2.78;;
56911;SDS011;42800;53.928;27.662;2023-07-13T11:24:57;3.50;;;2.60;;
56911;SDS011;42800;53.928;27.662;2023-07-13T11:27:36;6.07;;;3.13;;
56911;SDS011;42800;53.928;27.662;2023-07-13T11:30:13;2.95;;;2.50;;
56911;SDS011;42800;53.928;27.662;2023-07-13T11:32:49;8.15;;;3.35;;
56911;SDS011;42800;53.928;27.662;2023-07-13T11:35:17;2.75;;;2.30;;
56911;SDS011;42800;53.928;27.662;2023-07-13T11:37:48;2.83;;;2.60;;
56911;SDS011;42800;53.928;27.662;2023-07-13T11:40:15;5.38;;;2.60;;
56911;SDS011;42800;53.928;27.662;2023-07-13T11:42:41;5.57;;;3.03;;
56911;SDS011;42800;53.928;27.662;2023-07-13T11:45:18;3.22;;;2.33;;
56911;SDS011;42800;53.928;27.662;2023-07-13T11:47:48;7.43;;;2.45;;
56911;SDS011;42800;53.928;27.662;2023-07-13T11:50:25;4.68;;;1.83;;
56911;SDS011;42800;53.928;27.662;2023-07-13T11:52:52;2.72;;;2.30;;
56911;SDS011;42800;53.928;27.662;2023-07-13T11:55:22;3.25;;;2.30;;
56911;SDS011;42800;53.928;27.662;2023-07-13T11:57:50;2.28;;;2.00;;
56911;SDS011;42800;53.928;27.662;2023-07-13T12:00:21;2.50;;;2.03;;
56911;SDS011;42800;53.928;27.662;2023-07-13T12:02:49;2.40;;;1.98;;
56911;SDS011;42800;53.928;27.662;2023-07-13T12:05:18;3.60;;;2.13;;
56911;SDS011;42800;53.928;27.662;2023-07-13T12:07:46;2.90;;;2.53;;
56911;SDS011;42800;53.928;27.662;2023-07-13T12:10:17;3.10;;;1.80;;
56911;SDS011;42800;53.928;27.662;2023-07-13T12:12:47;5.70;;;2.33;;
56911;SDS011;42800;53.928;27.662;2023-07-13T12:15:14;3.42;;;1.75;;
56911;SDS011;42800;53.928;27.662;2023-07-13T12:17:41;4.07;;;1.85;;
56911;SDS011;42800;53.928;27.662;2023-07-13T12:20:14;3.15;;;2.17;;
56911;SDS011;42800;53.928;27.662;2023-07-13T12:22:47;4.47;;;1.88;;
56911;SDS011;42800;53.928;27.662;2023-07-13T12:25:14;5.10;;;2.00;;
56911;SDS011;42800;53.928;27.662;2023-07-13T12:27:45;2.55;;;1.88;;
56911;SDS011;42800;53.928;27.662;2023-07-13T12:30:23;2.88;;;2.00;;
56911;SDS011;42800;53.928;27.662;2023-07-13T12:33:01;1.95;;;1.85;;
56911;SDS011;42800;53.928;27.662;2023-07-13T12:35:39;2.20;;;2.00;;
56911;SDS011;42800;53.928;27.662;2023-07-13T12:38:09;3.58;;;2.25;;
56911;SDS011;42800;53.928;27.662;2023-07-13T12:40:36;3.28;;;2.08;;
56911;SDS011;42800;53.928;27.662;2023-07-13T12:43:05;3.47;;;2.13;;
56911;SDS011;42800;53.928;27.662;2023-07-13T12:45:36;2.25;;;2.10;;
56911;SDS011;42800;53.928;27.662;2023-07-13T12:48:11;2.80;;;2.20;;
56911;SDS011;42800;53.928;27.662;2023-07-13T12:50:46;3.40;;;2.30;;
56911;SDS011;42800;53.928;27.662;2023-07-13T12:53:19;4.40;;;1.95;;
56911;SDS011;42800;53.928;27.662;2023-07-13T12:55:47;4.53;;;2.53;;
56911;SDS011;42800;53.928;27.662;2023-07-13T12:58:28;2.65;;;2.33;;
56911;SDS011;42800;53.928;27.662;2023-07-13T13:00:58;6.03;;;2.58;;
56911;SDS011;42800;53.928;27.662;2023-07-13T13:03:29;4.47;;;2.45;;
56911;SDS011;42800;53.928;27.662;2023-07-13T13:05:59;5.38;;;2.80;;
56911;SDS011;42800;53.928;27.662;2023-07-13T13:08:28;4.82;;;2.42;;
56911;SDS011;42800;53.928;27.662;2023-07-13T13:11:00;3.97;;;2.38;;
56911;SDS011;42800;53.928;27.662;2023-07-13T13:13:27;3.83;;;2.50;;
56911;SDS011;42800;53.928;27.662;2023-07-13T13:15:54;2.95;;;2.45;;
56911;SDS011;42800;53.928;27.662;2023-07-13T13:18:22;2.78;;;2.25;;
56911;SDS011;42800;53.928;27.662;2023-07-13T13:20:49;5.38;;;2.80;;
56911;SDS011;42800;53.928;27.662;2023-07-13T13:23:17;3.05;;;2.42;;
56911;SDS011;42800;53.928;27.662;2023-07-13T13:25:45;4.90;;;2.13;;
56911;SDS011;42800;53.928;27.662;2023-07-13T13:28:15;2.63;;;2.42;;
56911;SDS011;42800;53.928;27.662;2023-07-13T13:30:43;5.05;;;2.70;;
56911;SDS011;42800;53.928;27.662;2023-07-13T13:33:10;2.50;;;2.30;;
56911;SDS011;42800;53.928;27.662;2023-07-13T13:35:37;3.35;;;2.17;;
56911;SDS011;42800;53.928;27.662;2023-07-13T13:38:04;6.75;;;2.65;;
56911;SDS011;42800;53.928;27.662;2023-07-13T13:40:36;6.60;;;2.42;;
56911;SDS011;42800;53.928;27.662;2023-07-13T13:43:02;4.38;;;2.08;;
56911;SDS011;42800;53.928;27.662;2023-07-13T13:45:30;4.03;;;2.38;;
56911;SDS011;42800;53.928;27.662;2023-07-13T13:47:57;4.03;;;2.40;;
56911;SDS011;42800;53.928;27.662;2023-07-13T13:50:23;2.95;;;2.40;;
56911;SDS011;42800;53.928;27.662;2023-07-13T13:52:50;3.60;;;2.40;;
56911;SDS011;42800;53.928;27.662;2023-07-13T13:55:17;3.90;;;2.10;;
56911;SDS011;42800;53.928;27.662;2023-07-13T13:57:44;4.20;;;2.08;;
56911;SDS011;42800;53.928;27.662;2023-07-13T14:00:11;4.25;;;2.25;;
56911;SDS011;42800;53.928;27.662;2023-07-13T14:02:39;5.63;;;2.20;;
56911;SDS011;42800;53.928;27.662;2023-07-13T14:05:09;4.38;;;2.03;;
56911;SDS011;42800;53.928;27.662;2023-07-13T14:07:38;3.95;;;2.15;;
56911;SDS011;42800;53.928;27.662;2023-07-13T14:10:08;2.45;;;2.13;;
56911;SDS011;42800;53.928;27.662;2023-07-13T14:12:37;2.30;;;1.83;;
56911;SDS011;42800;53.928;27.662;2023-07-13T14:15:03;4.80;;;2.00;;
56911;SDS011;42800;53.928;27.662;2023-07-13T14:17:29;2.83;;;1.88;;
56911;SDS011;42800;53.928;27.662;2023-07-13T14:19:56;3.45;;;2.00;;
56911;SDS011;42800;53.928;27.662;2023-07-13T14:22:23;3.85;;;1.80;;
56911;SDS011;42800;53.928;27.662;2023-07-13T14:24:50;3.78;;;2.00;;
56911;SDS011;42800;53.928;27.662;2023-07-13T14:27:17;3.50;;;1.77;;
56911;SDS011;42800;53.928;27.662;2023-07-13T14:29:42;2.70;;;1.73;;
56911;SDS011;42800;53.928;27.662;2023-07-13T14:32:10;4.75;;;2.20;;
56911;SDS011;42800;53.928;27.662;2023-07-13T14:34:37;4.07;;;1.70;;
56911;SDS011;42800;53.928;27.662;2023-07-13T14:37:03;2.35;;;1.92;;
56911;SDS011;42800;53.928;27.662;2023-07-13T14:39:30;2.97;;;1.90;;
56911;SDS011;42800;53.928;27.662;2023-07-13T14:41:57;4.32;;;1.90;;
56911;SDS011;42800;53.928;27.662;2023-07-13T14:44:24;3.55;;;2.03;;
56911;SDS011;42800;53.928;27.662;2023-07-13T14:46:54;7.40;;;2.58;;